createdAt,value
2019-02-11T00:00:55.552Z,995.66
2019-02-11T00:01:55.526Z,995.70
2019-02-11T00:02:55.546Z,995.73
2019-02-11T00:04:16.472Z,995.76
2019-02-11T00:04:55.446Z,995.78
2019-02-11T00:05:55.419Z,995.82
2019-02-11T00:06:55.393Z,995.89
2019-02-11T00:07:55.369Z,995.91
2019-02-11T00:08:55.341Z,995.97
2019-02-11T00:10:16.343Z,995.96
2019-02-11T00:10:55.299Z,995.96
2019-02-11T00:11:55.261Z,996.03
2019-02-11T00:12:55.233Z,996.02
2019-02-11T00:13:55.207Z,996.04
2019-02-11T00:14:55.180Z,996.09
2019-02-11T00:16:16.154Z,996.14
2019-02-11T00:16:55.128Z,996.19
2019-02-11T00:17:55.104Z,996.20
2019-02-11T00:18:55.075Z,996.22
2019-02-11T00:19:55.049Z,996.28
2019-02-11T00:20:55.022Z,996.32
2019-02-11T00:22:15.994Z,996.33
2019-02-11T00:22:54.973Z,996.32
2019-02-11T00:23:54.946Z,996.38
2019-02-11T00:24:54.915Z,996.38
2019-02-11T00:25:54.890Z,996.41
2019-02-11T00:26:54.862Z,996.44
2019-02-11T00:28:15.834Z,996.44
2019-02-11T00:28:54.809Z,996.51
2019-02-11T00:29:54.874Z,996.52
2019-02-11T00:30:54.755Z,996.53
2019-02-11T00:31:54.729Z,996.60
2019-02-11T00:32:54.723Z,996.65
2019-02-11T00:34:15.674Z,996.63
2019-02-11T00:34:54.650Z,996.67
2019-02-11T00:35:54.623Z,996.66
2019-02-11T00:36:54.596Z,996.72
2019-02-11T00:37:54.568Z,996.70
2019-02-11T00:38:54.543Z,996.78
2019-02-11T00:40:15.629Z,996.76
2019-02-11T00:40:54.491Z,996.80
2019-02-11T00:41:54.469Z,996.84
2019-02-11T00:42:54.436Z,996.88
2019-02-11T00:43:54.410Z,996.86
2019-02-11T00:44:54.389Z,996.89
2019-02-11T00:46:15.356Z,996.96
2019-02-11T00:46:54.337Z,996.94
2019-02-11T00:47:54.304Z,996.99
2019-02-11T00:48:54.281Z,996.96
2019-02-11T00:49:54.260Z,997.03
2019-02-11T00:50:54.225Z,997.00
2019-02-11T00:52:15.198Z,997.08
2019-02-11T00:52:54.175Z,997.06
2019-02-11T00:53:54.182Z,997.18
2019-02-11T00:54:54.120Z,997.14
2019-02-11T00:55:54.095Z,997.18
2019-02-11T00:56:54.069Z,997.17
2019-02-11T00:58:15.040Z,997.22
2019-02-11T00:58:54.018Z,997.25
2019-02-11T00:59:53.989Z,997.25
2019-02-11T01:00:53.963Z,997.29
2019-02-11T01:01:53.936Z,997.31
2019-02-11T01:02:53.911Z,997.36
2019-02-11T01:04:14.890Z,997.43
2019-02-11T01:04:53.857Z,997.39
2019-02-11T01:05:53.832Z,997.42
2019-02-11T01:06:53.804Z,997.39
2019-02-11T01:07:53.778Z,997.48
2019-02-11T01:08:53.752Z,997.48
2019-02-11T01:10:14.797Z,997.51
2019-02-11T01:10:53.700Z,997.51
2019-02-11T01:11:53.672Z,997.55
2019-02-11T01:12:53.651Z,997.56
2019-02-11T01:13:53.625Z,997.56
2019-02-11T01:14:53.593Z,997.71
2019-02-11T01:16:14.563Z,997.58
2019-02-11T01:16:53.538Z,997.66
2019-02-11T01:17:53.511Z,997.67
2019-02-11T01:18:53.487Z,997.68
2019-02-11T01:19:53.461Z,997.72
2019-02-11T01:20:53.435Z,997.77
2019-02-11T01:22:14.409Z,997.83
2019-02-11T01:22:53.378Z,997.83
2019-02-11T01:23:53.351Z,997.89
2019-02-11T01:24:53.326Z,997.85
2019-02-11T01:25:53.301Z,997.91
2019-02-11T01:26:53.274Z,997.96
2019-02-11T01:28:14.243Z,997.95
2019-02-11T01:28:53.217Z,998.03
2019-02-11T01:29:53.223Z,998.03
2019-02-11T01:30:53.163Z,998.07
2019-02-11T01:31:53.137Z,998.09
2019-02-11T01:32:53.114Z,998.12
2019-02-11T01:34:14.083Z,998.16
2019-02-11T01:34:53.061Z,998.13
2019-02-11T01:35:53.030Z,998.21
2019-02-11T01:36:53.005Z,998.19
2019-02-11T01:37:52.980Z,998.24
2019-02-11T01:38:52.949Z,998.24
2019-02-11T01:40:13.977Z,998.28
2019-02-11T01:40:52.899Z,998.29
2019-02-11T01:41:52.870Z,998.34
2019-02-11T01:42:52.842Z,998.30
2019-02-11T01:43:52.816Z,998.36
2019-02-11T01:44:52.789Z,998.40
2019-02-11T01:46:13.764Z,998.42
2019-02-11T01:46:52.736Z,998.42
2019-02-11T01:47:52.710Z,998.44
2019-02-11T01:48:52.683Z,998.51
2019-02-11T01:49:52.656Z,998.50
2019-02-11T01:50:52.633Z,998.45
2019-02-11T01:52:13.601Z,998.50
2019-02-11T01:52:52.577Z,998.53
2019-02-11T01:53:52.550Z,998.52
2019-02-11T01:54:52.522Z,998.63
2019-02-11T01:55:52.495Z,998.63
2019-02-11T01:56:52.470Z,998.63
2019-02-11T01:58:13.446Z,998.62
2019-02-11T01:58:52.413Z,998.56
2019-02-11T01:59:52.392Z,998.58
2019-02-11T02:00:52.363Z,998.64
2019-02-11T02:01:52.336Z,998.65
2019-02-11T02:02:52.309Z,998.72
2019-02-11T02:04:13.280Z,998.74
2019-02-11T02:04:52.255Z,998.74
2019-02-11T02:05:52.229Z,998.74
2019-02-11T02:06:52.205Z,998.71
2019-02-11T02:07:52.174Z,998.83
2019-02-11T02:08:52.146Z,998.84
2019-02-11T02:10:13.150Z,998.82
2019-02-11T02:10:52.093Z,998.86
2019-02-11T02:11:52.067Z,998.83
2019-02-11T02:12:52.041Z,998.80
2019-02-11T02:13:52.014Z,998.79
2019-02-11T02:14:51.988Z,998.87
2019-02-11T02:16:12.959Z,998.82
2019-02-11T02:16:51.935Z,998.93
2019-02-11T02:17:51.908Z,998.87
2019-02-11T02:18:51.881Z,998.94
2019-02-11T02:19:51.854Z,998.96
2019-02-11T02:20:51.828Z,998.92
2019-02-11T02:22:12.802Z,999.00
2019-02-11T02:22:51.774Z,998.98
2019-02-11T02:23:51.749Z,999.02
2019-02-11T02:24:51.722Z,999.03
2019-02-11T02:25:51.702Z,999.06
2019-02-11T02:26:51.680Z,999.04
2019-02-11T02:28:12.643Z,999.12
2019-02-11T02:28:51.617Z,999.11
2019-02-11T02:29:51.591Z,999.13
2019-02-11T02:30:51.575Z,999.13
2019-02-11T02:31:51.562Z,999.20
2019-02-11T02:32:51.558Z,999.23
2019-02-11T02:34:12.500Z,999.23
2019-02-11T02:34:51.456Z,999.29
2019-02-11T02:35:51.433Z,999.24
2019-02-11T02:36:51.410Z,999.29
2019-02-11T02:37:51.384Z,999.32
2019-02-11T02:38:51.367Z,999.28
2019-02-11T02:40:12.482Z,999.28
2019-02-11T02:40:51.309Z,999.38
2019-02-11T02:41:51.298Z,999.35
2019-02-11T02:42:51.246Z,999.33
2019-02-11T02:43:55.575Z,999.34
2019-02-11T02:44:51.194Z,999.33
2019-02-11T02:46:12.266Z,999.37
2019-02-11T02:46:51.142Z,999.38
2019-02-11T02:47:51.118Z,999.38
2019-02-11T02:48:51.087Z,999.41
2019-02-11T02:49:51.061Z,999.50
2019-02-11T02:50:51.033Z,999.45
2019-02-11T02:52:12.008Z,999.55
2019-02-11T02:52:50.980Z,999.51
2019-02-11T02:53:50.954Z,999.56
2019-02-11T02:54:50.949Z,999.52
2019-02-11T02:55:50.902Z,999.54
2019-02-11T02:56:50.889Z,999.56
2019-02-11T02:58:11.854Z,999.59
2019-02-11T02:58:50.825Z,999.61
2019-02-11T02:59:50.811Z,999.60
2019-02-11T03:00:50.770Z,999.63
2019-02-11T03:01:50.857Z,999.69
2019-02-11T03:02:50.717Z,999.65
2019-02-11T03:04:11.692Z,999.72
2019-02-11T03:04:50.665Z,999.75
2019-02-11T03:05:52.824Z,999.71
2019-02-11T03:06:50.612Z,999.75
2019-02-11T03:07:50.585Z,999.80
2019-02-11T03:08:50.560Z,999.85
2019-02-11T03:10:11.606Z,999.85
2019-02-11T03:10:50.507Z,999.83
2019-02-11T03:11:50.482Z,999.82
2019-02-11T03:12:50.454Z,999.88
2019-02-11T03:13:50.431Z,999.83
2019-02-11T03:14:50.401Z,999.87
2019-02-11T03:16:11.376Z,999.89
2019-02-11T03:16:50.352Z,999.92
2019-02-11T03:17:50.323Z,999.91
2019-02-11T03:18:50.306Z,999.97
2019-02-11T03:19:50.271Z,999.95
2019-02-11T03:20:50.246Z,1000.02
2019-02-11T03:22:11.219Z,1000.00
2019-02-11T03:22:50.193Z,1000.08
2019-02-11T03:23:50.166Z,1000.15
2019-02-11T03:24:50.140Z,1000.09
2019-02-11T03:25:50.116Z,1000.10
2019-02-11T03:26:50.089Z,1000.02
2019-02-11T03:28:11.058Z,1000.07
2019-02-11T03:28:50.034Z,1000.12
2019-02-11T03:29:50.032Z,1000.17
2019-02-11T03:30:50.004Z,1000.15
2019-02-11T03:31:49.959Z,1000.23
2019-02-11T03:32:49.933Z,1000.24
2019-02-11T03:34:10.900Z,1000.24
2019-02-11T03:34:49.876Z,1000.28
2019-02-11T03:35:49.848Z,1000.29
2019-02-11T03:36:49.824Z,1000.32
2019-02-11T03:37:49.796Z,1000.32
2019-02-11T03:38:49.769Z,1000.33
2019-02-11T03:40:10.809Z,1000.34
2019-02-11T03:40:49.717Z,1000.45
2019-02-11T03:41:49.691Z,1000.38
2019-02-11T03:42:49.663Z,1000.45
2019-02-11T03:43:49.647Z,1000.48
2019-02-11T03:44:49.609Z,1000.54
2019-02-11T03:46:10.586Z,1000.50
2019-02-11T03:46:49.557Z,1000.60
2019-02-11T03:47:49.542Z,1000.57
2019-02-11T03:48:49.508Z,1000.62
2019-02-11T03:49:49.480Z,1000.61
2019-02-11T03:50:49.451Z,1000.63
2019-02-11T03:52:10.430Z,1000.67
2019-02-11T03:52:49.401Z,1000.65
2019-02-11T03:53:49.372Z,1000.67
2019-02-11T03:54:49.344Z,1000.67
2019-02-11T03:55:49.320Z,1000.77
2019-02-11T03:56:49.291Z,1000.72
2019-02-11T03:58:10.266Z,1000.75
2019-02-11T03:58:49.238Z,1000.74
2019-02-11T03:59:49.212Z,1000.77
2019-02-11T04:00:49.184Z,1000.79
2019-02-11T04:01:49.158Z,1000.87
2019-02-11T04:02:49.131Z,1000.94
2019-02-11T04:04:10.103Z,1000.92
2019-02-11T04:04:49.076Z,1000.93
2019-02-11T04:05:49.052Z,1000.90
2019-02-11T04:06:49.027Z,1000.94
2019-02-11T04:07:48.999Z,1000.97
2019-02-11T04:08:48.971Z,1001.00
2019-02-11T04:10:09.970Z,1001.04
2019-02-11T04:10:48.921Z,1001.06
2019-02-11T04:11:48.893Z,1001.05
2019-02-11T04:12:48.864Z,1001.06
2019-02-11T04:13:48.837Z,1001.10
2019-02-11T04:14:48.810Z,1001.06
2019-02-11T04:16:09.784Z,1001.14
2019-02-11T04:16:48.767Z,1001.16
2019-02-11T04:17:48.735Z,1001.19
2019-02-11T04:18:48.709Z,1001.19
2019-02-11T04:19:48.677Z,1001.21
2019-02-11T04:20:49.242Z,1001.27
2019-02-11T04:22:09.623Z,1001.25
2019-02-11T04:22:48.605Z,1001.31
2019-02-11T04:23:48.571Z,1001.29
2019-02-11T04:24:48.544Z,1001.33
2019-02-11T04:25:48.542Z,1001.33
2019-02-11T04:26:48.491Z,1001.34
2019-02-11T04:28:09.465Z,1001.36
2019-02-11T04:28:48.436Z,1001.38
2019-02-11T04:29:48.487Z,1001.42
2019-02-11T04:30:48.382Z,1001.44
2019-02-11T04:31:48.356Z,1001.53
2019-02-11T04:32:48.328Z,1001.47
2019-02-11T04:34:09.304Z,1001.50
2019-02-11T04:34:48.280Z,1001.51
2019-02-11T04:35:48.249Z,1001.56
2019-02-11T04:36:48.227Z,1001.47
2019-02-11T04:37:48.196Z,1001.60
2019-02-11T04:38:48.168Z,1001.52
2019-02-11T04:40:09.237Z,1001.61
2019-02-11T04:40:48.172Z,1001.65
2019-02-11T04:41:48.089Z,1001.74
2019-02-11T04:42:48.139Z,1001.73
2019-02-11T04:43:48.034Z,1001.78
2019-02-11T04:44:48.009Z,1001.77
2019-02-11T04:46:08.981Z,1001.73
2019-02-11T04:46:48.983Z,1001.86
2019-02-11T04:47:47.989Z,1001.86
2019-02-11T04:48:47.902Z,1001.87
2019-02-11T04:49:47.942Z,1001.87
2019-02-11T04:50:47.866Z,1001.93
2019-02-11T04:52:08.865Z,1001.90
2019-02-11T04:52:47.808Z,1001.95
2019-02-11T04:53:47.769Z,1001.89
2019-02-11T04:54:47.739Z,1001.96
2019-02-11T04:55:47.721Z,1002.01
2019-02-11T04:56:47.689Z,1002.06
2019-02-11T04:58:08.662Z,1002.01
2019-02-11T04:58:47.639Z,1002.03
2019-02-11T04:59:47.608Z,1002.08
2019-02-11T05:00:47.628Z,1002.05
2019-02-11T05:01:47.604Z,1002.10
2019-02-11T05:02:47.537Z,1002.11
2019-02-11T05:04:08.501Z,1002.17
2019-02-11T05:04:47.510Z,1002.13
2019-02-11T05:05:47.531Z,1002.15
2019-02-11T05:06:47.425Z,1002.16
2019-02-11T05:07:47.436Z,1002.18
2019-02-11T05:08:47.415Z,1002.22
2019-02-11T05:10:08.421Z,1002.21
2019-02-11T05:10:47.348Z,1002.23
2019-02-11T05:11:47.286Z,1002.23
2019-02-11T05:12:47.267Z,1002.25
2019-02-11T05:13:47.231Z,1002.23
2019-02-11T05:14:47.205Z,1002.32
2019-02-11T05:16:08.179Z,1002.30
2019-02-11T05:16:47.152Z,1002.34
2019-02-11T05:17:47.125Z,1002.34
2019-02-11T05:18:47.131Z,1002.39
2019-02-11T05:19:47.069Z,1002.39
2019-02-11T05:20:47.043Z,1002.43
2019-02-11T05:22:08.094Z,1002.45
2019-02-11T05:22:46.989Z,1002.38
2019-02-11T05:23:46.962Z,1002.47
2019-02-11T05:24:46.939Z,1002.46
2019-02-11T05:25:46.909Z,1002.51
2019-02-11T05:26:46.889Z,1002.57
2019-02-11T05:28:07.857Z,1002.57
2019-02-11T05:28:46.830Z,1002.54
2019-02-11T05:29:46.802Z,1002.56
2019-02-11T05:30:46.775Z,1002.51
2019-02-11T05:31:46.750Z,1002.55
2019-02-11T05:32:46.721Z,1002.54
2019-02-11T05:34:07.776Z,1002.54
2019-02-11T05:34:46.716Z,1002.65
2019-02-11T05:35:46.640Z,1002.58
2019-02-11T05:36:46.615Z,1002.59
2019-02-11T05:37:46.588Z,1002.60
2019-02-11T05:38:46.559Z,1002.59
2019-02-11T05:40:07.594Z,1002.64
2019-02-11T05:40:46.507Z,1002.66
2019-02-11T05:41:46.498Z,1002.75
2019-02-11T05:42:46.451Z,1002.70
2019-02-11T05:43:46.425Z,1002.71
2019-02-11T05:44:53.747Z,1002.76
2019-02-11T05:46:07.370Z,1002.72
2019-02-11T05:46:46.350Z,1002.79
2019-02-11T05:47:46.342Z,1002.76
2019-02-11T05:48:46.293Z,1002.80
2019-02-11T05:49:46.262Z,1002.75
2019-02-11T05:50:46.235Z,1002.83
2019-02-11T05:52:07.210Z,1002.80
2019-02-11T05:52:46.185Z,1002.81
2019-02-11T05:53:46.155Z,1002.82
2019-02-11T05:54:46.127Z,1002.81
2019-02-11T05:55:46.111Z,1002.87
2019-02-11T05:56:46.117Z,1002.91
2019-02-11T05:58:07.189Z,1002.92
2019-02-11T05:58:46.029Z,1002.92
2019-02-11T05:59:45.993Z,1002.93
2019-02-11T06:00:45.964Z,1002.96
2019-02-11T06:01:45.937Z,1002.96
2019-02-11T06:02:45.908Z,1002.98
2019-02-11T06:04:06.886Z,1002.96
2019-02-11T06:04:45.889Z,1002.95
2019-02-11T06:05:45.828Z,1002.98
2019-02-11T06:06:45.799Z,1003.04
2019-02-11T06:07:45.777Z,1003.05
2019-02-11T06:08:45.747Z,1003.11
2019-02-11T06:10:06.716Z,1003.18
2019-02-11T06:10:45.754Z,1003.12
2019-02-11T06:11:45.662Z,1003.18
2019-02-11T06:12:45.638Z,1003.16
2019-02-11T06:13:45.613Z,1003.19
2019-02-11T06:14:45.586Z,1003.26
2019-02-11T06:16:06.552Z,1003.31
2019-02-11T06:16:45.529Z,1003.29
2019-02-11T06:17:45.539Z,1003.31
2019-02-11T06:18:45.513Z,1003.35
2019-02-11T06:19:45.442Z,1003.38
2019-02-11T06:20:45.420Z,1003.34
2019-02-11T06:22:06.387Z,1003.44
2019-02-11T06:22:45.361Z,1003.40
2019-02-11T06:23:45.333Z,1003.40
2019-02-11T06:24:45.311Z,1003.50
2019-02-11T06:25:45.280Z,1003.52
2019-02-11T06:26:45.250Z,1003.55
2019-02-11T06:28:06.229Z,1003.62
2019-02-11T06:28:45.267Z,1003.68
2019-02-11T06:29:45.170Z,1003.67
2019-02-11T06:30:45.141Z,1003.71
2019-02-11T06:31:45.114Z,1003.81
2019-02-11T06:32:45.099Z,1003.88
2019-02-11T06:34:06.091Z,1003.90
2019-02-11T06:34:45.606Z,1003.91
2019-02-11T06:35:45.070Z,1003.86
2019-02-11T06:36:45.015Z,1003.92
2019-02-11T06:37:45.035Z,1003.99
2019-02-11T06:38:44.922Z,1003.98
2019-02-11T06:40:05.893Z,1004.00
2019-02-11T06:40:44.890Z,1004.06
2019-02-11T06:41:44.841Z,1004.12
2019-02-11T06:42:44.811Z,1004.11
2019-02-11T06:43:44.784Z,1004.27
2019-02-11T06:44:44.758Z,1004.16
2019-02-11T06:46:05.771Z,1004.21
2019-02-11T06:46:44.701Z,1004.23
2019-02-11T06:47:44.675Z,1004.28
2019-02-11T06:48:44.647Z,1004.33
2019-02-11T06:49:44.619Z,1004.39
2019-02-11T06:50:44.592Z,1004.39
2019-02-11T06:52:05.562Z,1004.42
2019-02-11T06:52:44.541Z,1004.45
2019-02-11T06:53:44.511Z,1004.41
2019-02-11T06:54:44.488Z,1004.42
2019-02-11T06:55:44.454Z,1004.41
2019-02-11T06:56:44.430Z,1004.41
2019-02-11T06:58:05.399Z,1004.46
2019-02-11T06:58:44.371Z,1004.50
2019-02-11T06:59:44.346Z,1004.53
2019-02-11T07:00:44.322Z,1004.51
2019-02-11T07:01:44.292Z,1004.45
2019-02-11T07:02:44.266Z,1004.48
2019-02-11T07:04:05.234Z,1004.54
2019-02-11T07:04:44.208Z,1004.57
2019-02-11T07:05:44.183Z,1004.53
2019-02-11T07:06:44.153Z,1004.53
2019-02-11T07:07:44.129Z,1004.53
2019-02-11T07:08:44.100Z,1004.57
2019-02-11T07:10:05.076Z,1004.62
2019-02-11T07:10:44.048Z,1004.62
2019-02-11T07:11:44.019Z,1004.64
2019-02-11T07:12:43.992Z,1004.60
2019-02-11T07:13:43.964Z,1004.65
2019-02-11T07:14:43.938Z,1004.65
2019-02-11T07:16:04.912Z,1004.77
2019-02-11T07:16:43.882Z,1004.80
2019-02-11T07:17:43.857Z,1004.80
2019-02-11T07:18:43.831Z,1004.86
2019-02-11T07:19:43.802Z,1004.80
2019-02-11T07:20:43.777Z,1004.88
2019-02-11T07:22:04.745Z,1004.87
2019-02-11T07:22:43.718Z,1004.84
2019-02-11T07:23:43.692Z,1004.87
2019-02-11T07:24:43.667Z,1004.95
2019-02-11T07:25:43.641Z,1004.99
2019-02-11T07:26:43.608Z,1004.98
2019-02-11T07:28:04.583Z,1004.97
2019-02-11T07:28:43.558Z,1005.00
2019-02-11T07:29:43.528Z,1005.03
2019-02-11T07:30:43.500Z,1005.08
2019-02-11T07:31:43.474Z,1005.09
2019-02-11T07:32:43.450Z,1005.15
2019-02-11T07:34:04.418Z,1005.12
2019-02-11T07:34:43.390Z,1005.16
2019-02-11T07:35:43.369Z,1005.07
2019-02-11T07:36:43.337Z,1005.14
2019-02-11T07:37:43.313Z,1005.18
2019-02-11T07:38:43.282Z,1005.20
2019-02-11T07:40:04.253Z,1005.28
2019-02-11T07:40:43.231Z,1005.33
2019-02-11T07:41:43.207Z,1005.27
2019-02-11T07:42:43.174Z,1005.29
2019-02-11T07:43:43.146Z,1005.39
2019-02-11T07:44:43.121Z,1005.38
2019-02-11T07:46:04.094Z,1005.43
2019-02-11T07:46:43.064Z,1005.45
2019-02-11T07:47:43.037Z,1005.51
2019-02-11T07:48:43.010Z,1005.51
2019-02-11T07:49:42.984Z,1005.52
2019-02-11T07:50:42.956Z,1005.50
2019-02-11T07:52:03.927Z,1005.54
2019-02-11T07:52:42.902Z,1005.52
2019-02-11T07:53:42.874Z,1005.54
2019-02-11T07:54:42.848Z,1005.51
2019-02-11T07:55:42.826Z,1005.57
2019-02-11T07:56:42.794Z,1005.48
2019-02-11T07:58:03.766Z,1005.60
2019-02-11T07:58:42.739Z,1005.57
2019-02-11T07:59:42.712Z,1005.62
2019-02-11T08:00:42.687Z,1005.75
2019-02-11T08:01:42.659Z,1005.71
2019-02-11T08:02:42.631Z,1005.76
2019-02-11T08:04:03.609Z,1005.80
2019-02-11T08:04:42.579Z,1005.81
2019-02-11T08:05:42.549Z,1005.86
2019-02-11T08:06:42.523Z,1005.92
2019-02-11T08:07:42.495Z,1005.92
2019-02-11T08:08:42.469Z,1005.92
2019-02-11T08:10:03.441Z,1005.92
2019-02-11T08:10:42.417Z,1005.96
2019-02-11T08:11:42.395Z,1006.01
2019-02-11T08:12:42.364Z,1005.99
2019-02-11T08:13:42.335Z,1006.02
2019-02-11T08:14:42.368Z,1006.06
2019-02-11T08:16:03.278Z,1006.13
2019-02-11T08:16:42.264Z,1006.17
2019-02-11T08:17:42.229Z,1006.16
2019-02-11T08:18:42.200Z,1006.16
2019-02-11T08:19:42.183Z,1006.16
2019-02-11T08:20:42.153Z,1006.17
2019-02-11T08:22:03.123Z,1006.20
2019-02-11T08:22:42.097Z,1006.19
2019-02-11T08:23:42.067Z,1006.18
2019-02-11T08:24:42.038Z,1006.19
2019-02-11T08:25:42.014Z,1006.23
2019-02-11T08:26:41.988Z,1006.24
2019-02-11T08:28:02.959Z,1006.26
2019-02-11T08:28:41.946Z,1006.33
2019-02-11T08:29:41.907Z,1006.32
2019-02-11T08:30:41.886Z,1006.33
2019-02-11T08:31:41.856Z,1006.35
2019-02-11T08:32:41.825Z,1006.39
2019-02-11T08:34:02.801Z,1006.38
2019-02-11T08:34:41.771Z,1006.45
2019-02-11T08:35:41.745Z,1006.53
2019-02-11T08:36:41.719Z,1006.50
2019-02-11T08:37:41.695Z,1006.53
2019-02-11T08:38:41.668Z,1006.57
2019-02-11T08:40:02.641Z,1006.54
2019-02-11T08:40:41.616Z,1006.57
2019-02-11T08:41:41.592Z,1006.61
2019-02-11T08:42:41.562Z,1006.60
2019-02-11T08:43:41.534Z,1006.63
2019-02-11T08:44:41.508Z,1006.70
2019-02-11T08:46:02.483Z,1006.77
2019-02-11T08:46:41.473Z,1006.74
2019-02-11T08:47:41.435Z,1006.74
2019-02-11T08:48:41.404Z,1006.77
2019-02-11T08:49:41.377Z,1006.88
2019-02-11T08:50:41.348Z,1006.86
2019-02-11T08:52:02.328Z,1006.93
2019-02-11T08:52:41.298Z,1006.90
2019-02-11T08:53:41.271Z,1006.87
2019-02-11T08:54:41.244Z,1006.99
2019-02-11T08:55:41.226Z,1006.97
2019-02-11T08:56:41.195Z,1006.99
2019-02-11T08:58:02.164Z,1006.93
2019-02-11T08:58:41.140Z,1006.97
2019-02-11T08:59:41.361Z,1007.05
2019-02-11T09:00:41.086Z,1007.07
2019-02-11T09:01:41.059Z,1007.02
2019-02-11T09:02:41.030Z,1007.07
2019-02-11T09:04:02.024Z,1007.02
2019-02-11T09:04:40.982Z,1007.10
2019-02-11T09:05:41.037Z,1007.11
2019-02-11T09:06:40.962Z,1007.14
2019-02-11T09:07:40.905Z,1007.15
2019-02-11T09:08:40.873Z,1007.23
2019-02-11T09:10:01.847Z,1007.25
2019-02-11T09:10:40.821Z,1007.21
2019-02-11T09:11:40.846Z,1007.20
2019-02-11T09:12:40.768Z,1007.18
2019-02-11T09:13:40.774Z,1007.27
2019-02-11T09:14:40.716Z,1007.27
2019-02-11T09:16:01.687Z,1007.27
2019-02-11T09:16:40.661Z,1007.28
2019-02-11T09:17:40.675Z,1007.28
2019-02-11T09:18:40.618Z,1007.27
2019-02-11T09:19:40.780Z,1007.27
2019-02-11T09:20:42.078Z,1007.29
2019-02-11T09:22:07.306Z,1007.29
2019-02-11T09:22:40.504Z,1007.30
2019-02-11T09:23:40.541Z,1007.33
2019-02-11T09:24:40.451Z,1007.35
2019-02-11T09:25:40.431Z,1007.33
2019-02-11T09:26:40.408Z,1007.41
2019-02-11T09:28:01.373Z,1007.44
2019-02-11T09:28:40.347Z,1007.44
2019-02-11T09:29:40.323Z,1007.49
2019-02-11T09:30:40.294Z,1007.49
2019-02-11T09:31:40.268Z,1007.48
2019-02-11T09:32:40.252Z,1007.47
2019-02-11T09:34:01.380Z,1007.55
2019-02-11T09:34:40.187Z,1007.63
2019-02-11T09:35:40.166Z,1007.61
2019-02-11T09:36:40.135Z,1007.70
2019-02-11T09:37:40.116Z,1007.72
2019-02-11T09:38:40.083Z,1007.73
2019-02-11T09:40:01.061Z,1007.78
2019-02-11T09:40:40.035Z,1007.79
2019-02-11T09:41:40.030Z,1007.83
2019-02-11T09:42:39.979Z,1007.84
2019-02-11T09:43:40.017Z,1007.85
2019-02-11T09:44:39.927Z,1007.91
2019-02-11T09:46:04.033Z,1007.91
2019-02-11T09:46:39.889Z,1008.00
2019-02-11T09:47:40.655Z,1008.01
2019-02-11T09:48:39.825Z,1008.12
2019-02-11T09:49:39.798Z,1008.06
2019-02-11T09:50:39.835Z,1008.10
2019-02-11T09:52:00.784Z,1008.07
2019-02-11T09:52:39.719Z,1008.09
2019-02-11T09:53:39.713Z,1008.16
2019-02-11T09:54:39.668Z,1008.12
2019-02-11T09:55:39.870Z,1008.14
2019-02-11T09:56:39.617Z,1008.14
2019-02-11T09:58:00.620Z,1008.16
2019-02-11T09:58:39.566Z,1008.17
2019-02-11T09:59:39.541Z,1008.20
2019-02-11T10:00:39.516Z,1008.26
2019-02-11T10:01:39.490Z,1008.33
2019-02-11T10:02:39.464Z,1008.25
2019-02-11T10:04:00.439Z,1008.36
2019-02-11T10:04:39.415Z,1008.35
2019-02-11T10:05:39.396Z,1008.37
2019-02-11T10:06:39.361Z,1008.34
2019-02-11T10:07:39.336Z,1008.32
2019-02-11T10:08:39.313Z,1008.37
2019-02-11T10:10:00.286Z,1008.37
2019-02-11T10:10:39.303Z,1008.40
2019-02-11T10:11:39.235Z,1008.41
2019-02-11T10:12:39.228Z,1008.45
2019-02-11T10:13:39.218Z,1008.48
2019-02-11T10:14:39.158Z,1008.49
2019-02-11T10:16:00.135Z,1008.51
2019-02-11T10:16:39.106Z,1008.59
2019-02-11T10:17:39.084Z,1008.55
2019-02-11T10:18:39.056Z,1008.57
2019-02-11T10:19:39.031Z,1008.64
2019-02-11T10:20:39.005Z,1008.68
2019-02-11T10:22:00.057Z,1008.78
2019-02-11T10:22:38.953Z,1008.82
2019-02-11T10:23:38.963Z,1008.80
2019-02-11T10:24:38.913Z,1008.86
2019-02-11T10:25:38.886Z,1008.91
2019-02-11T10:26:38.853Z,1008.90
2019-02-11T10:27:59.830Z,1008.92
2019-02-11T10:28:38.830Z,1008.95
2019-02-11T10:29:38.782Z,1008.94
2019-02-11T10:30:38.750Z,1008.92
2019-02-11T10:31:38.726Z,1008.98
2019-02-11T10:32:38.704Z,1009.02
2019-02-11T10:33:59.676Z,1009.03
2019-02-11T10:34:38.655Z,1009.06
2019-02-11T10:35:42.234Z,1009.07
2019-02-11T10:36:38.603Z,1009.06
2019-02-11T10:37:38.576Z,1009.13
2019-02-11T10:38:38.549Z,1009.10
2019-02-11T10:39:59.525Z,1009.16
2019-02-11T10:40:38.499Z,1009.17
2019-02-11T10:41:38.484Z,1009.25
2019-02-11T10:42:38.452Z,1009.27
2019-02-11T10:43:38.424Z,1009.31
2019-02-11T10:44:38.404Z,1009.34
2019-02-11T10:45:59.375Z,1009.33
2019-02-11T10:46:38.356Z,1009.35
2019-02-11T10:47:38.325Z,1009.34
2019-02-11T10:48:38.304Z,1009.33
2019-02-11T10:49:38.282Z,1009.35
2019-02-11T10:50:38.256Z,1009.42
2019-02-11T10:51:59.230Z,1009.39
2019-02-11T10:52:38.201Z,1009.51
2019-02-11T10:53:38.177Z,1009.48
2019-02-11T10:54:38.149Z,1009.43
2019-02-11T10:55:38.127Z,1009.46
2019-02-11T10:56:38.101Z,1009.47
2019-02-11T10:57:59.084Z,1009.47
2019-02-11T10:58:38.050Z,1009.47
2019-02-11T10:59:38.024Z,1009.45
2019-02-11T11:00:38.009Z,1009.44
2019-02-11T11:01:38.060Z,1009.43
2019-02-11T11:02:37.959Z,1009.46
2019-02-11T11:03:58.925Z,1009.48
2019-02-11T11:04:37.900Z,1009.44
2019-02-11T11:05:37.950Z,1009.46
2019-02-11T11:06:37.848Z,1009.51
2019-02-11T11:07:37.824Z,1009.51
2019-02-11T11:08:37.820Z,1009.50
2019-02-11T11:09:58.777Z,1009.48
2019-02-11T11:10:37.760Z,1009.47
2019-02-11T11:11:37.757Z,1009.54
2019-02-11T11:12:37.701Z,1009.54
2019-02-11T11:13:37.679Z,1009.54
2019-02-11T11:14:37.649Z,1009.60
2019-02-11T11:15:58.623Z,1009.63
2019-02-11T11:16:37.598Z,1009.64
2019-02-11T11:17:37.576Z,1009.63
2019-02-11T11:18:37.554Z,1009.66
2019-02-11T11:19:37.523Z,1009.64
2019-02-11T11:20:37.502Z,1009.61
2019-02-11T11:21:58.509Z,1009.71
2019-02-11T11:22:37.460Z,1009.77
2019-02-11T11:23:37.426Z,1009.76
2019-02-11T11:24:37.403Z,1009.86
2019-02-11T11:25:37.376Z,1009.84
2019-02-11T11:26:37.358Z,1009.87
2019-02-11T11:27:58.325Z,1009.86
2019-02-11T11:28:37.303Z,1009.91
2019-02-11T11:29:37.277Z,1009.98
2019-02-11T11:30:37.252Z,1009.99
2019-02-11T11:31:37.226Z,1010.10
2019-02-11T11:32:37.201Z,1010.21
2019-02-11T11:33:58.178Z,1010.19
2019-02-11T11:34:37.182Z,1010.32
2019-02-11T11:35:37.149Z,1010.33
2019-02-11T11:36:37.167Z,1010.37
2019-02-11T11:37:37.079Z,1010.36
2019-02-11T11:38:37.057Z,1010.41
2019-02-11T11:39:58.030Z,1010.39
2019-02-11T11:40:37.015Z,1010.52
2019-02-11T11:41:37.038Z,1010.62
2019-02-11T11:42:36.962Z,1010.64
2019-02-11T11:43:36.931Z,1010.53
2019-02-11T11:44:36.907Z,1010.50
2019-02-11T11:45:57.882Z,1010.53
2019-02-11T11:46:46.650Z,1010.50
2019-02-11T11:47:36.832Z,1010.58
2019-02-11T11:48:36.810Z,1010.66
2019-02-11T11:49:36.782Z,1010.66
2019-02-11T11:52:18.001Z,1010.46
2019-02-11T11:53:17.806Z,1010.54
2019-02-11T11:55:11.430Z,1010.64
2019-02-11T11:56:11.309Z,1010.70
2019-02-11T11:58:05.849Z,1010.76
2019-02-11T11:59:05.679Z,1010.75
2019-02-11T12:00:05.739Z,1010.78
2019-02-11T12:01:05.708Z,1010.79
2019-02-11T12:02:05.604Z,1010.76
2019-02-11T12:03:06.061Z,1010.82
2019-02-11T12:04:06.681Z,1010.81
2019-02-11T12:05:05.920Z,1010.86
2019-02-11T12:06:05.578Z,1010.86
2019-02-11T12:07:05.552Z,1010.88
2019-02-11T12:08:05.432Z,1010.95
2019-02-11T12:09:05.500Z,1010.93
2019-02-11T12:10:05.379Z,1010.93
2019-02-11T12:11:05.384Z,1010.87
2019-02-11T12:12:05.377Z,1010.94
2019-02-11T12:13:21.741Z,1010.98
2019-02-11T12:14:05.359Z,1010.97
2019-02-11T12:15:05.272Z,1010.98